Terminal Aerodrome Forecast
Issued by NWS

Current Version | Previous Version | Text Only | Print | Product List | Glossary On
Versions: 1 2 3 4 5 6 7 8 9 10 11 12 13
826
FTAK31 PAJN 221737
TAFAGY
TAF
PAGY 221737Z 2218/2318 04004KT P6SM SCT100 BKN150
     FM222000 21011KT P6SM -RA SCT030 OVC050
     FM230200 21015G25KT P6SM -SHRA FEW004 SCT025 OVC040
     FM230600 21006KT P6SM FEW004 SCT040 OVC060
     FM231700 20009KT P6SM OVC035
      AMD LTD TO CLD VIS AND WIND=

USA.gov is the U.S. government's official web portal to all federal, state and local government web resources and services.